Station History

Weather Underground - logo

Station Historical Data
Daily Summary for November 15, 2017 Units:  English    Metric   Both
« Previous Day
Next Day »
Daily Weekly Monthly Yearly Custom
  High: Low: Average:
Temperature: 73.9 °F 44.3 °F 59.5 °F
Dew Point: 54.9 °F 42.5 °F 50.5 °F
Humidity: 95 % 46 % 74 %
Wind Speed: 3.5 mph 0.0 mph 0.3 mph
Wind Gust: 3.5 mph - -
Wind:- - South
Pressure: 30.12 in 29.93 in -
Precipitation: 0.01 in    
Historical Graphs
 
 
Tabular Data for November 15, 2017
Time Temperature Dew Point Pressure Wind Wind Speed Wind Gust Humidity Rainfall Rate (Hourly)
00:04 49.1 °F 46.9 °F 30.12 in Calm     92 % 0.00 in
00:09 49.1 °F 47.2 °F 30.11 in Calm     93 % 0.00 in
00:14 49.3 °F 47.4 °F 30.11 in Calm     93 % 0.00 in
00:19 49.5 °F 47.6 °F 30.11 in Calm     93 % 0.00 in
00:24 49.6 °F 47.7 °F 30.10 in Calm     93 % 0.00 in
00:29 49.8 °F 47.9 °F 30.09 in Calm     93 % 0.00 in
00:30 49.8 °F 47.9 °F 30.09 in Calm     93 % 0.00 in
00:35 50.2 °F 48.3 °F 30.09 in Calm     93 % 0.00 in
00:40 50.4 °F 48.2 °F 30.09 in Calm     92 % 0.00 in
00:45 50.2 °F 47.7 °F 30.09 in Calm     91 % 0.00 in
00:50 49.7 °F 46.9 °F 30.09 in Calm     90 % 0.00 in
00:55 49.2 °F 46.4 °F 30.08 in Calm     90 % 0.00 in
01:00 48.7 °F 45.9 °F 30.09 in Calm     90 % 0.00 in
01:05 48.1 °F 45.3 °F 30.09 in Calm     90 % 0.00 in
01:10 47.8 °F 45.6 °F 30.09 in Calm     92 % 0.00 in
01:15 47.8 °F 45.6 °F 30.09 in Calm     92 % 0.00 in
01:20 47.7 °F 45.5 °F 30.09 in Calm     92 % 0.00 in
01:25 47.5 °F 45.3 °F 30.10 in Calm     92 % 0.00 in
01:30 47.3 °F 45.1 °F 30.10 in Calm     92 % 0.00 in
01:35 47.1 °F 45.2 °F 30.10 in Calm     93 % 0.00 in
01:40 47.2 °F 45.3 °F 30.09 in Calm     93 % 0.00 in
01:45 47.2 °F 45.3 °F 30.10 in Calm     93 % 0.00 in
01:50 47.1 °F 45.2 °F 30.09 in Calm     93 % 0.00 in
01:55 47.3 °F 45.4 °F 30.10 in Calm     93 % 0.00 in
02:00 47.3 °F 45.4 °F 30.10 in Calm     93 % 0.00 in
02:05 47.3 °F 45.4 °F 30.10 in Calm     93 % 0.00 in
02:10 47.1 °F 45.2 °F 30.10 in Calm     93 % 0.00 in
02:15 47.1 °F 45.2 °F 30.10 in Calm     93 % 0.00 in
02:20 46.9 °F 45.0 °F 30.10 in Calm     93 % 0.00 in
02:25 46.3 °F 44.1 °F 30.10 in Calm     92 % 0.00 in
02:30 46.5 °F 44.6 °F 30.10 in Calm     93 % 0.00 in
02:35 46.8 °F 45.2 °F 30.11 in Calm     94 % 0.00 in
02:40 46.7 °F 45.1 °F 30.11 in Calm     94 % 0.00 in
02:45 46.7 °F 45.1 °F 30.10 in Calm     94 % 0.00 in
02:50 46.6 °F 45.0 °F 30.10 in Calm     94 % 0.00 in
02:55 46.4 °F 44.5 °F 30.10 in Calm     93 % 0.00 in
03:00 46.2 °F 44.3 °F 30.10 in Calm     93 % 0.00 in
03:02 46.1 °F 44.2 °F 30.09 in Calm     93 % 0.00 in
03:07 45.9 °F 44.0 °F 30.10 in Calm     93 % 0.00 in
03:12 45.6 °F 43.7 °F 30.10 in Calm     93 % 0.00 in
03:17 45.6 °F 43.7 °F 30.10 in Calm     93 % 0.00 in
03:23 45.7 °F 44.1 °F 30.09 in Calm     94 % 0.00 in
03:28 45.8 °F 44.2 °F 30.09 in Calm     94 % 0.00 in
03:33 45.7 °F 44.1 °F 30.08 in Calm     94 % 0.00 in
03:38 45.5 °F 43.6 °F 30.08 in Calm     93 % 0.00 in
03:43 45.3 °F 43.4 °F 30.08 in Calm     93 % 0.00 in
03:48 45.0 °F 43.1 °F 30.08 in Calm     93 % 0.00 in
03:53 44.9 °F 43.0 °F 30.08 in Calm     93 % 0.00 in
03:58 44.9 °F 43.3 °F 30.08 in Calm     94 % 0.00 in
04:03 44.9 °F 43.3 °F 30.08 in Calm     94 % 0.00 in
04:08 44.8 °F 43.2 °F 30.08 in Calm     94 % 0.00 in
04:13 44.7 °F 43.1 °F 30.08 in Calm     94 % 0.00 in
04:18 44.6 °F 43.0 °F 30.07 in Calm     94 % 0.00 in
04:23 44.9 °F 43.3 °F 30.08 in Calm     94 % 0.00 in
04:28 45.0 °F 43.4 °F 30.08 in Calm     94 % 0.00 in
04:38 44.8 °F 43.2 °F 30.08 in Calm     94 % 0.00 in
04:43 44.6 °F 43.0 °F 30.08 in Calm     94 % 0.00 in
04:48 44.4 °F 42.5 °F 30.09 in Calm     93 % 0.00 in
04:53 44.3 °F 42.7 °F 30.09 in Calm     94 % 0.00 in
04:58 44.3 °F 42.7 °F 30.09 in Calm     94 % 0.00 in
05:03 44.8 °F 43.2 °F 30.08 in Calm     94 % 0.00 in
05:08 44.9 °F 43.6 °F 30.08 in Calm     95 % 0.00 in
05:13 45.3 °F 44.0 °F 30.08 in Calm     95 % 0.00 in
05:18 45.7 °F 44.4 °F 30.08 in Calm     95 % 0.00 in
05:23 46.0 °F 44.6 °F 30.08 in Calm     95 % 0.00 in
05:28 46.6 °F 45.2 °F 30.08 in Calm     95 % 0.00 in
05:33 46.9 °F 45.5 °F 30.08 in Calm     95 % 0.00 in
05:38 47.1 °F 45.7 °F 30.08 in Calm     95 % 0.00 in
05:43 47.4 °F 46.0 °F 30.08 in Calm     95 % 0.00 in
05:48 47.6 °F 46.2 °F 30.09 in Calm     95 % 0.00 in
05:53 47.9 °F 46.3 °F 30.08 in Calm     94 % 0.00 in
05:58 48.2 °F 46.6 °F 30.08 in Calm     94 % 0.00 in
06:04 48.3 °F 46.7 °F 30.08 in Calm     94 % 0.00 in
06:08 48.3 °F 46.4 °F 30.09 in Calm     93 % 0.00 in
06:14 48.1 °F 46.2 °F 30.08 in Calm     93 % 0.00 in
06:19 48.4 °F 46.8 °F 30.09 in Calm     94 % 0.00 in
06:24 48.5 °F 46.6 °F 30.09 in Calm     93 % 0.00 in
06:29 48.4 °F 46.5 °F 30.09 in Calm     93 % 0.00 in
06:34 48.1 °F 46.2 °F 30.08 in Calm     93 % 0.00 in
06:39 47.8 °F 45.9 °F 30.09 in Calm     93 % 0.00 in
06:44 47.6 °F 45.7 °F 30.09 in Calm     93 % 0.00 in
06:49 47.3 °F 45.1 °F 30.10 in Calm     92 % 0.01 in
06:54 47.0 °F 45.1 °F 30.10 in Calm     93 % 0.01 in
06:59 47.0 °F 45.1 °F 30.10 in Calm     93 % 0.01 in
07:04 47.2 °F 45.6 °F 30.10 in Calm     94 % 0.01 in
07:09 47.2 °F 45.3 °F 30.10 in Calm     93 % 0.01 in
07:14 46.9 °F 45.0 °F 30.10 in Calm     93 % 0.01 in
07:19 46.7 °F 44.8 °F 30.10 in Calm   0.1 mph 93 % 0.01 in
07:24 46.8 °F 45.2 °F 30.10 in Calm     94 % 0.01 in
07:29 46.9 °F 45.3 °F 30.10 in WSW 1.2 mph   94 % 0.01 in
07:34 47.1 °F 45.5 °F 30.09 in Calm     94 % 0.01 in
07:39 47.2 °F 45.6 °F 30.09 in WSW 1.2 mph 1.2 mph 94 % 0.01 in
07:44 47.5 °F 45.9 °F 30.09 in SSE 1.2 mph   94 % 0.01 in
07:49 47.9 °F 46.3 °F 30.09 in Calm     94 % 0.00 in
07:54 48.5 °F 46.9 °F 30.09 in Calm     94 % 0.00 in
07:59 49.4 °F 48.0 °F 30.09 in Calm     95 % 0.00 in
08:04 50.3 °F 48.6 °F 30.09 in Calm     94 % 0.00 in
08:09 51.7 °F 50.0 °F 30.09 in Calm     94 % 0.00 in
08:14 53.2 °F 50.6 °F 30.09 in Calm     91 % 0.00 in
08:19 54.3 °F 51.4 °F 30.09 in Calm     90 % 0.00 in
08:24 55.5 °F 51.7 °F 30.09 in Calm     87 % 0.00 in
08:29 56.0 °F 51.6 °F 30.09 in Calm     85 % 0.00 in
08:34 56.1 °F 51.7 °F 30.09 in Calm     85 % 0.00 in
08:39 56.3 °F 51.8 °F 30.09 in West 1.2 mph   85 % 0.00 in
08:44 57.1 °F 52.3 °F 30.09 in Calm     84 % 0.00 in
08:49 57.9 °F 52.4 °F 30.09 in Calm     82 % 0.00 in
08:54 58.7 °F 52.5 °F 30.08 in Calm     80 % 0.00 in
08:59 59.5 °F 51.9 °F 30.08 in SE 2.3 mph 2.3 mph 76 % 0.00 in
09:04 60.0 °F 52.4 °F 30.08 in SE 2.3 mph 2.3 mph 76 % 0.00 in
09:09 60.3 °F 51.6 °F 30.08 in SSW 2.3 mph 2.3 mph 73 % 0.00 in
09:14 60.9 °F 52.2 °F 30.08 in SE 2.3 mph   73 % 0.00 in
09:19 61.4 °F 52.7 °F 30.08 in SE 1.2 mph 1.2 mph 73 % 0.00 in
09:24 61.7 °F 52.2 °F 30.08 in SE 1.2 mph 1.2 mph 71 % 0.00 in
09:29 62.2 °F 51.9 °F 30.08 in SE 1.2 mph   69 % 0.00 in
09:34 63.2 °F 52.1 °F 30.08 in Calm     67 % 0.00 in
09:39 63.8 °F 52.2 °F 30.08 in Calm   0.1 mph 66 % 0.00 in
09:49 64.5 °F 52.5 °F 30.08 in Calm     65 % 0.00 in
09:54 65.0 °F 52.1 °F 30.08 in Calm     63 % 0.00 in
09:59 65.2 °F 52.3 °F 30.07 in SE 1.2 mph 1.2 mph 63 % 0.00 in
10:04 65.4 °F 52.5 °F 30.07 in South 1.0 mph 1.0 mph 63 % 0.00 in
10:09 65.7 °F 52.3 °F 30.07 in SSE 1.2 mph 1.2 mph 62 % 0.00 in
10:14 66.3 °F 52.9 °F 30.07 in SE 2.3 mph 2.3 mph 62 % 0.00 in
10:19 66.2 °F 52.3 °F 30.07 in Calm     61 % 0.00 in
10:24 66.5 °F 52.6 °F 30.07 in SSE 2.3 mph   61 % 0.00 in
10:29 66.9 °F 53.0 °F 30.07 in SE 1.2 mph 1.2 mph 61 % 0.00 in
10:34 67.1 °F 53.2 °F 30.07 in South 1.2 mph 1.2 mph 61 % 0.00 in
10:37 67.3 °F 53.8 °F 30.07 in SE 1.2 mph 1.2 mph 62 % 0.00 in
10:42 67.3 °F 53.8 °F 30.07 in West 1.2 mph 1.2 mph 62 % 0.00 in
10:47 67.1 °F 54.5 °F 30.07 in South 2.0 mph 2.0 mph 64 % 0.00 in
10:52 67.7 °F 54.2 °F 30.06 in Calm     62 % 0.00 in
10:57 67.5 °F 54.0 °F 30.06 in WNW 1.2 mph 1.2 mph 62 % 0.00 in
11:02 67.2 °F 53.7 °F 30.06 in NW 2.3 mph 2.3 mph 62 % 0.00 in
11:07 67.6 °F 54.6 °F 30.05 in Calm     63 % 0.00 in
11:12 67.9 °F 54.4 °F 30.05 in NNW 1.2 mph 1.2 mph 62 % 0.00 in
11:17 68.3 °F 54.8 °F 30.05 in WNW 1.2 mph 1.2 mph 62 % 0.00 in
11:22 68.2 °F 54.2 °F 30.04 in WNW 1.2 mph   61 % 0.00 in
11:27 68.5 °F 54.5 °F 30.04 in SE 1.2 mph   61 % 0.00 in
11:32 68.8 °F 54.3 °F 30.03 in Calm     60 % 0.00 in
11:37 69.1 °F 54.2 °F 30.03 in East 1.2 mph 1.2 mph 59 % 0.00 in
11:42 69.0 °F 54.5 °F 30.03 in Calm     60 % 0.00 in
11:47 69.0 °F 54.5 °F 30.02 in SE 2.3 mph 2.3 mph 60 % 0.00 in
11:52 69.2 °F 54.7 °F 30.02 in SSE 1.2 mph   60 % 0.00 in
11:57 69.4 °F 54.4 °F 30.02 in SE 2.3 mph 2.3 mph 59 % 0.00 in
12:02 69.4 °F 54.9 °F 30.02 in NW 1.0 mph 1.0 mph 60 % 0.00 in
12:07 70.1 °F 54.6 °F 30.02 in WNW 1.0 mph 1.0 mph 58 % 0.00 in
12:12 70.2 °F 53.8 °F 30.01 in SSW 1.2 mph   56 % 0.00 in
12:17 69.7 °F 52.3 °F 30.01 in WNW 2.3 mph 2.3 mph 54 % 0.00 in
12:22 69.4 °F 53.0 °F 30.01 in Calm     56 % 0.00 in
12:27 69.2 °F 52.8 °F 30.00 in NW 1.2 mph   56 % 0.00 in
12:32 69.5 °F 53.1 °F 30.00 in SE 3.5 mph 3.5 mph 56 % 0.00 in
12:37 70.1 °F 53.2 °F 30.00 in WNW 1.2 mph   55 % 0.00 in
12:42 70.3 °F 51.8 °F 30.00 in ESE 2.3 mph 2.3 mph 52 % 0.00 in
12:47 70.7 °F 52.7 °F 30.00 in Calm   0.2 mph 53 % 0.00 in
12:52 70.9 °F 53.4 °F 29.99 in NE 2.3 mph 2.3 mph 54 % 0.00 in
12:57 70.9 °F 53.4 °F 29.99 in SSW 2.3 mph   54 % 0.00 in
13:07 71.3 °F 52.8 °F 29.98 in Calm     52 % 0.00 in
13:12 71.6 °F 54.1 °F 29.98 in Calm     54 % 0.00 in
13:17 72.0 °F 52.9 °F 29.98 in SSE 1.2 mph   51 % 0.00 in
13:22 72.0 °F 53.4 °F 29.98 in SE 1.2 mph 1.2 mph 52 % 0.00 in
13:28 72.0 °F 53.4 °F 29.98 in SE 1.2 mph 1.2 mph 52 % 0.00 in
13:33 72.2 °F 53.6 °F 29.98 in Calm     52 % 0.00 in
13:38 72.5 °F 53.3 °F 29.98 in SSE 1.2 mph   51 % 0.00 in
13:43 72.7 °F 53.5 °F 29.98 in SE 1.0 mph   51 % 0.00 in
13:48 73.1 °F 54.4 °F 29.98 in SSE 1.2 mph 1.2 mph 52 % 0.00 in
13:53 73.6 °F 53.8 °F 29.98 in SSE 2.3 mph 2.3 mph 50 % 0.00 in
13:58 73.7 °F 52.8 °F 29.97 in Calm     48 % 0.00 in
14:03 73.9 °F 53.0 °F 29.97 in SE 3.5 mph 3.5 mph 48 % 0.00 in
14:08 73.8 °F 51.7 °F 29.97 in WNW 1.2 mph 1.2 mph 46 % 0.00 in
14:13 73.3 °F 52.4 °F 29.97 in ESE 2.3 mph 2.3 mph 48 % 0.00 in
14:18 73.3 °F 52.4 °F 29.97 in Calm     48 % 0.00 in
14:23 73.4 °F 52.5 °F 29.97 in Calm     48 % 0.00 in
14:28 73.4 °F 51.9 °F 29.97 in SW 1.2 mph 1.2 mph 47 % 0.00 in
14:33 73.0 °F 51.6 °F 29.97 in Calm     47 % 0.00 in
14:38 72.6 °F 53.4 °F 29.97 in SE 1.0 mph   51 % 0.00 in
14:43 72.5 °F 52.8 °F 29.97 in Calm     50 % 0.00 in
14:48 72.3 °F 53.2 °F 29.97 in Calm     51 % 0.00 in
14:53 72.2 °F 52.5 °F 29.97 in Calm     50 % 0.00 in
14:58 72.0 °F 52.9 °F 29.97 in Calm     51 % 0.00 in
15:03 71.8 °F 53.2 °F 29.97 in Calm     52 % 0.00 in
15:08 71.6 °F 53.0 °F 29.97 in Calm     52 % 0.00 in
15:13 71.5 °F 52.4 °F 29.96 in Calm     51 % 0.00 in
15:18 71.3 °F 52.2 °F 29.96 in SE 1.2 mph   51 % 0.00 in
15:23 71.2 °F 52.7 °F 29.96 in Calm     52 % 0.00 in
15:28 71.2 °F 52.7 °F 29.96 in Calm     52 % 0.00 in
15:33 71.1 °F 52.0 °F 29.96 in Calm     51 % 0.00 in
15:38 71.0 °F 52.5 °F 29.96 in Calm     52 % 0.00 in
15:43 70.9 °F 52.9 °F 29.96 in Calm     53 % 0.00 in
15:48 70.6 °F 53.1 °F 29.96 in Calm     54 % 0.00 in
15:53 70.3 °F 53.4 °F 29.96 in Calm     55 % 0.00 in
15:58 70.0 °F 53.1 °F 29.96 in Calm     55 % 0.00 in
16:03 70.0 °F 52.6 °F 29.96 in WNW 1.2 mph   54 % 0.00 in
16:08 69.9 °F 52.5 °F 29.96 in Calm     54 % 0.00 in
16:13 69.8 °F 52.9 °F 29.95 in Calm     55 % 0.00 in
16:18 69.6 °F 52.7 °F 29.95 in Calm     55 % 0.00 in
16:23 69.5 °F 53.1 °F 29.95 in Calm   0.2 mph 56 % 0.00 in
16:28 69.3 °F 53.4 °F 29.95 in Calm     57 % 0.00 in
16:34 69.0 °F 53.1 °F 29.95 in Calm     57 % 0.00 in
16:39 68.7 °F 52.8 °F 29.95 in East 1.2 mph   57 % 0.00 in
16:44 68.8 °F 52.9 °F 29.95 in ESE 1.2 mph 1.2 mph 57 % 0.00 in
16:49 69.0 °F 52.6 °F 29.94 in Calm     56 % 0.00 in
16:54 68.9 °F 52.6 °F 29.94 in Calm     56 % 0.00 in
16:59 68.9 °F 52.6 °F 29.94 in Calm     56 % 0.00 in
17:04 68.6 °F 52.8 °F 29.94 in Calm     57 % 0.00 in
17:09 68.3 °F 52.9 °F 29.94 in Calm     58 % 0.00 in
17:14 67.9 °F 53.0 °F 29.94 in Calm     59 % 0.00 in
17:19 67.5 °F 53.6 °F 29.94 in Calm     61 % 0.00 in
17:24 67.1 °F 53.2 °F 29.94 in Calm     61 % 0.00 in
17:25 67.1 °F 53.2 °F 29.94 in Calm     61 % 0.00 in
17:30 66.8 °F 53.8 °F 29.94 in Calm     63 % 0.00 in
17:35 66.4 °F 53.8 °F 29.94 in Calm     64 % 0.00 in
17:40 66.0 °F 53.9 °F 29.94 in Calm     65 % 0.00 in
17:45 65.7 °F 53.6 °F 29.94 in Calm     65 % 0.00 in
17:50 65.4 °F 53.7 °F 29.94 in Calm     66 % 0.00 in
17:55 65.1 °F 53.5 °F 29.94 in Calm     66 % 0.00 in
18:00 65.0 °F 53.4 °F 29.94 in Calm     66 % 0.00 in
18:05 64.9 °F 53.3 °F 29.94 in Calm     66 % 0.00 in
18:10 64.8 °F 53.6 °F 29.94 in Calm     67 % 0.00 in
18:15 64.6 °F 53.8 °F 29.94 in Calm     68 % 0.00 in
18:20 64.5 °F 53.7 °F 29.93 in Calm     68 % 0.00 in
18:25 64.3 °F 53.9 °F 29.94 in Calm     69 % 0.00 in
18:35 63.5 °F 54.3 °F 29.94 in Calm     72 % 0.00 in
18:40 63.1 °F 54.3 °F 29.94 in Calm     73 % 0.00 in
18:45 62.9 °F 53.7 °F 29.94 in Calm     72 % 0.00 in
18:50 63.0 °F 53.4 °F 29.94 in Calm     71 % 0.00 in
18:55 63.0 °F 53.4 °F 29.95 in Calm     71 % 0.00 in
19:00 62.9 °F 53.7 °F 29.95 in Calm     72 % 0.00 in
19:05 62.7 °F 53.5 °F 29.95 in Calm     72 % 0.00 in
19:10 62.6 °F 53.4 °F 29.95 in Calm     72 % 0.00 in
19:15 62.4 °F 53.6 °F 29.95 in Calm     73 % 0.00 in
19:20 62.2 °F 53.8 °F 29.95 in Calm     74 % 0.00 in
19:21 62.2 °F 53.8 °F 29.95 in Calm     74 % 0.00 in
19:25 62.1 °F 53.7 °F 29.95 in Calm     74 % 0.00 in
19:30 62.1 °F 53.7 °F 29.95 in Calm     74 % 0.00 in
19:35 62.3 °F 53.9 °F 29.95 in Calm     74 % 0.00 in
19:40 62.3 °F 54.3 °F 29.95 in Calm     75 % 0.00 in
19:45 62.2 °F 54.2 °F 29.95 in Calm     75 % 0.00 in
19:50 62.1 °F 54.1 °F 29.95 in SE 1.2 mph   75 % 0.00 in
19:55 62.1 °F 54.1 °F 29.95 in Calm     75 % 0.00 in
20:00 62.0 °F 54.0 °F 29.95 in Calm     75 % 0.00 in
20:05 62.0 °F 54.0 °F 29.96 in SE 1.2 mph   75 % 0.00 in
20:10 62.3 °F 53.9 °F 29.96 in Calm     74 % 0.00 in
20:16 62.5 °F 54.1 °F 29.96 in Calm     74 % 0.00 in
20:21 62.7 °F 53.9 °F 29.97 in Calm     73 % 0.00 in
20:26 62.8 °F 54.0 °F 29.97 in Calm     73 % 0.00 in
20:31 62.9 °F 54.1 °F 29.97 in Calm     73 % 0.00 in
20:36 63.1 °F 53.9 °F 29.97 in ESE 1.2 mph   72 % 0.00 in
20:41 63.1 °F 53.9 °F 29.97 in ESE 1.2 mph   72 % 0.00 in
20:46 63.2 °F 54.0 °F 29.97 in Calm     72 % 0.00 in
20:51 63.2 °F 54.0 °F 29.97 in Calm     72 % 0.00 in
20:56 63.2 °F 53.6 °F 29.97 in Calm     71 % 0.00 in
21:01 63.3 °F 53.7 °F 29.97 in Calm     71 % 0.00 in
21:06 63.3 °F 53.7 °F 29.97 in Calm     71 % 0.00 in
21:11 63.1 °F 53.5 °F 29.97 in Calm     71 % 0.00 in
21:17 63.2 °F 53.6 °F 29.97 in Calm     71 % 0.00 in
21:21 63.2 °F 53.6 °F 29.97 in Calm     71 % 0.00 in
21:26 63.1 °F 53.5 °F 29.97 in Calm     71 % 0.00 in
21:31 63.2 °F 53.6 °F 29.97 in Calm     71 % 0.00 in
21:41 63.3 °F 53.7 °F 29.97 in Calm     71 % 0.00 in
21:46 63.2 °F 53.6 °F 29.97 in Calm     71 % 0.00 in
21:51 63.0 °F 53.4 °F 29.96 in Calm     71 % 0.00 in
21:56 63.1 °F 53.5 °F 29.96 in Calm     71 % 0.00 in
22:01 63.1 °F 53.9 °F 29.96 in Calm     72 % 0.00 in
22:07 62.8 °F 54.0 °F 29.96 in Calm     73 % 0.00 in
22:12 62.5 °F 53.7 °F 29.96 in Calm     73 % 0.00 in
22:17 62.4 °F 53.6 °F 29.96 in Calm     73 % 0.00 in
22:22 62.3 °F 53.5 °F 29.95 in Calm     73 % 0.00 in
22:27 62.3 °F 53.5 °F 29.95 in Calm     73 % 0.00 in
22:32 62.4 °F 53.6 °F 29.95 in Calm     73 % 0.00 in
22:37 62.4 °F 53.3 °F 29.95 in Calm     72 % 0.00 in
22:42 62.6 °F 53.4 °F 29.95 in Calm     72 % 0.00 in
22:47 62.6 °F 53.4 °F 29.95 in Calm     72 % 0.00 in
22:52 62.5 °F 53.3 °F 29.95 in Calm     72 % 0.00 in
22:57 62.4 °F 53.6 °F 29.95 in Calm     73 % 0.00 in
23:02 62.3 °F 53.9 °F 29.95 in Calm     74 % 0.00 in
23:07 62.1 °F 53.3 °F 29.95 in Calm     73 % 0.00 in
23:12 62.0 °F 53.6 °F 29.95 in Calm     74 % 0.00 in
23:17 62.0 °F 53.2 °F 29.94 in Calm     73 % 0.00 in
23:22 62.0 °F 53.2 °F 29.94 in Calm     73 % 0.00 in
23:27 62.0 °F 53.2 °F 29.94 in Calm     73 % 0.00 in
23:32 61.9 °F 52.8 °F 29.94 in Calm     72 % 0.00 in
23:37 61.9 °F 52.8 °F 29.95 in Calm     72 % 0.00 in
23:42 61.8 °F 52.7 °F 29.94 in Calm     72 % 0.00 in
23:47 61.8 °F 52.7 °F 29.94 in Calm     72 % 0.00 in
23:52 61.9 °F 52.8 °F 29.94 in Calm     72 % 0.00 in
23:57 61.9 °F 52.8 °F 29.94 in Calm     72 % 0.00 in
Park Place, Exeter, Tulare County, California, USA
Compliments of Weather Underground - 2.75 mb